Time;durP1;ratioP1;P1;durP2;ratioP2;P2;SDS_P1;SDS_P2;PMS_P1;PMS_P2;Temp;Humidity;BMP_temperature;BMP_pressure;BME280_temperature;BME280_humidity;BME280_pressure;Samples;Min_cycle;Max_cycle;Signal;HPM_P1;HPM_P2
2023/03/16 00:02:04;;;;;;;6.95;3.10;;;27.40;99.90;;;;;;5103736;28;20210;-75
2023/03/16 00:04:37;;;;;;;4.95;2.97;;;27.50;99.90;;;;;;5104270;28;20206;-76
2023/03/16 00:07:09;;;;;;;4.60;3.10;;;27.50;99.90;;;;;;5101459;28;20195;-76
2023/03/16 00:09:41;;;;;;;3.92;2.88;;;27.70;99.90;;;;;;5117535;28;20210;-77
2023/03/16 00:12:16;;;;;;;3.60;2.85;;;27.70;99.90;;;;;;5115848;28;20262;-76
2023/03/16 00:14:49;;;;;;;6.43;3.05;;;27.90;99.90;;;;;;5112611;28;20195;-76
2023/03/16 00:17:21;;;;;;;4.40;2.85;;;27.90;99.90;;;;;;5107597;28;20199;-77
2023/03/16 00:19:56;;;;;;;5.13;3.20;;;28.10;99.90;;;;;;5121020;28;20428;-76
2023/03/16 00:22:29;;;;;;;6.20;3.20;;;28.20;99.90;;;;;;5112364;28;20202;-76
2023/03/16 00:25:00;;;;;;;5.95;3.05;;;28.40;99.90;;;;;;5107580;28;20195;-76
2023/03/16 00:27:32;;;;;;;5.00;3.00;;;28.50;99.90;;;;;;5109853;28;20197;-76
2023/03/16 00:30:03;;;;;;;6.28;2.80;;;28.60;99.90;;;;;;5113310;28;20235;-77
2023/03/16 00:32:35;;;;;;;8.18;3.10;;;28.70;99.90;;;;;;5120031;28;20194;-76
2023/03/16 00:35:10;;;;;;;5.43;3.15;;;28.70;99.90;;;;;;5130817;28;20225;-77
2023/03/16 00:37:42;;;;;;;8.50;2.90;;;28.90;99.90;;;;;;5130474;28;20259;-76
2023/03/16 00:40:15;;;;;;;4.38;3.03;;;29.00;99.90;;;;;;5107776;28;20202;-77
2023/03/16 00:42:46;;;;;;;3.83;2.72;;;29.10;99.90;;;;;;5112912;28;20190;-75
2023/03/16 00:45:19;;;;;;;5.55;2.90;;;29.20;99.90;;;;;;5126196;28;20262;-77
2023/03/16 00:47:53;;;;;;;7.32;2.58;;;29.40;99.90;;;;;;5107473;28;20204;-77
2023/03/16 00:50:26;;;;;;;2.78;2.17;;;29.50;99.90;;;;;;5107149;28;20223;-77
2023/03/16 00:52:57;;;;;;;3.70;2.15;;;29.70;99.90;;;;;;5132457;28;20215;-75
2023/03/16 00:55:36;;;;;;;2.65;2.10;;;29.80;99.90;;;;;;5117059;28;20195;-77
2023/03/16 00:58:07;;;;;;;2.17;1.98;;;29.80;99.90;;;;;;5113481;28;20201;-76
2023/03/16 01:00:39;;;;;;;2.33;2.00;;;29.90;99.90;;;;;;5117197;28;20230;-76
2023/03/16 01:03:10;;;;;;;3.28;2.25;;;30.10;99.90;;;;;;5095310;28;20203;-76
2023/03/16 01:05:45;;;;;;;3.00;1.90;;;30.20;99.90;;;;;;5102719;28;20206;-77
2023/03/16 01:08:17;;;;;;;2.30;2.00;;;30.40;99.90;;;;;;5110575;28;20199;-76
2023/03/16 01:10:50;;;;;;;4.93;2.30;;;30.50;98.50;;;;;;5107899;28;20214;-77
2023/03/16 01:13:24;;;;;;;6.93;2.20;;;30.50;97.80;;;;;;5115496;28;20198;-77
2023/03/16 01:15:55;;;;;;;3.17;2.03;;;30.60;95.80;;;;;;5114996;28;20230;-77
2023/03/16 01:18:27;;;;;;;4.70;2.03;;;30.60;97.40;;;;;;5110052;28;20223;-76
2023/03/16 01:21:00;;;;;;;4.20;2.08;;;30.80;94.80;;;;;;5109586;28;20198;-77
2023/03/16 01:23:32;;;;;;;2.63;1.90;;;30.90;96.80;;;;;;5128168;28;20203;-78
2023/03/16 01:26:03;;;;;;;6.60;1.83;;;30.90;97.50;;;;;;5124722;28;20662;-76
2023/03/16 01:28:36;;;;;;;3.83;1.90;;;31.10;95.50;;;;;;5122128;28;20226;-76
2023/03/16 01:31:09;;;;;;;4.05;2.10;;;31.10;94.50;;;;;;5122387;28;20282;-76
2023/03/16 01:33:40;;;;;;;3.63;2.17;;;31.20;92.40;;;;;;5124608;28;20626;-76
2023/03/16 01:36:15;;;;;;;4.97;2.20;;;31.30;93.80;;;;;;5113025;28;20202;-76
2023/03/16 01:38:47;;;;;;;2.47;1.92;;;31.30;94.30;;;;;;5129814;28;20190;-76
2023/03/16 01:41:18;;;;;;;2.10;1.70;;;31.30;92.50;;;;;;5114647;28;20195;-75
2023/03/16 01:43:50;;;;;;;5.18;1.92;;;31.30;92.80;;;;;;5132853;28;20187;-74
2023/03/16 01:46:25;;;;;;;1.83;1.67;;;31.30;92.50;;;;;;5124356;27;20199;-75
2023/03/16 01:49:04;;;;;;;4.50;1.83;;;31.40;88.80;;;;;;5127608;28;20194;-76
2023/03/16 01:51:43;;;;;;;2.83;1.73;;;31.50;87.70;;;;;;5119690;28;20275;-75
2023/03/16 01:54:25;;;;;;;4.72;1.90;;;31.50;85.30;;;;;;5094456;28;20190;-75
2023/03/16 01:57:03;;;;;;;2.38;1.77;;;31.70;88.10;;;;;;5096696;28;20569;-76
2023/03/16 01:59:40;;;;;;;1.75;1.65;;;31.80;82.80;;;;;;5097008;28;20207;-76
2023/03/16 02:02:13;;;;;;;3.90;1.67;;;31.90;84.80;;;;;;5095893;28;20199;-75
2023/03/16 02:04:52;;;;;;;2.00;1.80;;;32.10;77.10;;;;;;5100392;28;20214;-76
2023/03/16 02:07:27;;;;;;;4.13;1.67;;;32.10;80.00;;;;;;5113125;28;20261;-76
2023/03/16 02:10:03;;;;;;;3.25;1.52;;;32.30;75.70;;;;;;5105206;28;20211;-76
2023/03/16 02:12:35;;;;;;;2.28;1.20;;;32.40;74.40;;;;;;5111237;28;20219;-77
2023/03/16 02:15:06;;;;;;;1.85;1.38;;;32.50;70.50;;;;;;5120944;28;20187;-76
2023/03/16 02:17:38;;;;;;;2.10;1.40;;;32.60;71.10;;;;;;5115931;28;20209;-76
2023/03/16 02:20:25;;;;;;;4.30;1.70;;;32.70;68.50;;;;;;5128921;28;20274;-75
2023/03/16 02:22:59;;;;;;;1.88;1.25;;;32.70;69.10;;;;;;5121198;28;20191;-75
2023/03/16 02:25:38;;;;;;;2.85;1.80;;;32.80;66.30;;;;;;5117903;28;20210;-76
2023/03/16 02:28:16;;;;;;;2.95;1.20;;;32.80;68.00;;;;;;5124080;28;20195;-76
2023/03/16 02:30:51;;;;;;;3.53;1.40;;;32.80;65.90;;;;;;5119774;27;20245;-76
2023/03/16 02:33:24;;;;;;;5.28;1.70;;;32.90;67.60;;;;;;5103111;28;20199;-76
2023/03/16 02:35:55;;;;;;;4.90;1.55;;;33.00;66.80;;;;;;5108590;28;20718;-76
2023/03/16 02:38:26;;;;;;;2.50;1.30;;;33.00;63.40;;;;;;5105025;28;20196;-77
2023/03/16 02:41:01;;;;;;;1.60;1.13;;;33.00;63.90;;;;;;5120281;28;20194;-76
2023/03/16 02:43:36;;;;;;;2.75;1.50;;;33.00;61.40;;;;;;5117540;28;20195;-76
2023/03/16 02:46:11;;;;;;;3.28;1.33;;;33.10;59.60;;;;;;5111054;28;20199;-75
2023/03/16 02:48:46;;;;;;;2.08;1.10;;;33.30;59.60;;;;;;5106962;28;20199;-75
2023/03/16 02:51:17;;;;;;;2.42;0.90;;;33.40;55.60;;;;;;5104495;28;20262;-75
2023/03/16 02:53:50;;;;;;;1.88;1.05;;;33.50;55.90;;;;;;5125375;28;20224;-76
2023/03/16 02:56:21;;;;;;;2.90;1.30;;;33.50;56.30;;;;;;5114811;28;20206;-75
2023/03/16 02:58:52;;;;;;;3.53;1.60;;;33.60;55.80;;;;;;5097429;28;20191;-75
2023/03/16 03:01:26;;;;;;;1.45;1.17;;;33.70;54.30;;;;;;5104090;28;20258;-76
2023/03/16 03:03:57;;;;;;;1.52;1.20;;;33.80;54.60;;;;;;5106591;28;20273;-76
2023/03/16 03:06:28;;;;;;;4.88;1.38;;;33.90;54.40;;;;;;5098911;28;20191;-77
2023/03/16 03:09:00;;;;;;;2.67;1.40;;;33.90;55.00;;;;;;5107047;28;20198;-76
2023/03/16 03:11:32;;;;;;;5.50;1.40;;;34.00;54.20;;;;;;5113749;28;20279;-75
2023/03/16 03:14:03;;;;;;;2.28;1.30;;;34.00;55.20;;;;;;5094663;28;20666;-75
2023/03/16 03:16:36;;;;;;;1.88;1.17;;;34.00;55.10;;;;;;5100353;28;20191;-76
2023/03/16 03:19:07;;;;;;;3.15;1.40;;;34.10;54.80;;;;;;5114089;28;20201;-76
2023/03/16 03:22:06;;;;;;;1.50;1.40;;;34.20;55.70;;;;;;5110122;28;20211;-77
2023/03/16 03:24:45;;;;;;;3.65;1.20;;;34.20;53.60;;;;;;5101328;28;20191;-75
2023/03/16 03:27:16;;;;;;;3.00;1.25;;;34.20;54.10;;;;;;5098608;28;20615;-76
2023/03/16 03:29:48;;;;;;;2.97;1.30;;;34.30;54.70;;;;;;5094595;28;20233;-75
2023/03/16 03:32:21;;;;;;;2.17;1.30;;;34.30;52.80;;;;;;5093987;28;20234;-74
2023/03/16 03:34:55;;;;;;;3.85;1.33;;;34.40;53.80;;;;;;5110019;28;20203;-76
2023/03/16 03:37:27;;;;;;;3.85;1.30;;;34.40;54.40;;;;;;5092873;28;20210;-75
2023/03/16 03:39:58;;;;;;;3.28;1.40;;;34.50;54.50;;;;;;5110731;28;20191;-75
2023/03/16 03:42:29;;;;;;;1.60;1.30;;;34.60;54.10;;;;;;5113045;28;20248;-76
2023/03/16 03:45:01;;;;;;;5.25;1.38;;;34.60;53.20;;;;;;5096028;28;20290;-75
2023/03/16 03:47:34;;;;;;;2.92;1.10;;;34.50;53.90;;;;;;5103266;28;20681;-75
2023/03/16 03:50:05;;;;;;;1.75;1.13;;;34.50;53.80;;;;;;5101612;28;20190;-75
2023/03/16 03:52:36;;;;;;;3.60;1.35;;;34.60;54.10;;;;;;5092407;28;20226;-75
2023/03/16 03:55:08;;;;;;;3.58;1.38;;;34.70;52.40;;;;;;5107460;28;20186;-75
2023/03/16 03:57:39;;;;;;;2.70;1.17;;;34.70;54.00;;;;;;5092632;28;20191;-76
2023/03/16 04:00:14;;;;;;;2.25;1.30;;;34.70;52.10;;;;;;5108642;28;20217;-76
2023/03/16 04:02:48;;;;;;;2.83;1.20;;;34.70;51.50;;;;;;5097088;28;20600;-75
2023/03/16 04:05:19;;;;;;;1.63;1.00;;;34.70;51.70;;;;;;5099331;28;20216;-76
2023/03/16 04:07:56;;;;;;;2.40;1.17;;;34.70;52.30;;;;;;5099576;28;20238;-76
2023/03/16 04:10:37;;;;;;;4.00;1.40;;;34.70;52.70;;;;;;5099995;28;20673;-77
2023/03/16 04:13:09;;;;;;;2.30;1.23;;;34.60;54.00;;;;;;5101751;28;20620;-76
2023/03/16 04:15:40;;;;;;;2.25;1.33;;;34.50;52.60;;;;;;5101208;28;20229;-75
2023/03/16 04:18:16;;;;;;;3.00;1.35;;;34.60;53.70;;;;;;5113265;28;20201;-76
2023/03/16 04:20:48;;;;;;;2.05;1.38;;;34.50;53.60;;;;;;5110982;28;20612;-77
2023/03/16 04:23:19;;;;;;;3.42;1.20;;;34.60;53.30;;;;;;5096834;28;20203;-76
2023/03/16 04:25:51;;;;;;;3.10;1.17;;;34.50;51.80;;;;;;5092937;28;20203;-75
2023/03/16 04:28:22;;;;;;;2.67;1.08;;;34.50;52.30;;;;;;5093187;28;20209;-77
2023/03/16 04:30:53;;;;;;;2.42;1.30;;;34.50;52.40;;;;;;5059841;28;20198;-77
2023/03/16 04:33:27;;;;;;;4.35;1.30;;;34.50;52.30;;;;;;5072649;28;20323;-77
2023/03/16 04:35:58;;;;;;;4.53;1.30;;;34.60;52.30;;;;;;5065843;28;20188;-76
2023/03/16 04:38:32;;;;;;;4.20;1.23;;;34.60;51.50;;;;;;5053219;28;20200;-76
2023/03/16 04:41:04;;;;;;;1.35;1.23;;;34.50;51.80;;;;;;5058646;28;20644;-75
2023/03/16 04:43:37;;;;;;;2.85;1.10;;;34.60;51.50;;;;;;5060672;28;20181;-74
2023/03/16 04:46:10;;;;;;;1.48;0.95;;;34.60;51.20;;;;;;5070708;28;20203;-77
2023/03/16 04:48:43;;;;;;;2.25;1.13;;;34.70;49.30;;;;;;5067509;28;20243;-77
2023/03/16 04:51:15;;;;;;;2.45;1.20;;;34.70;49.10;;;;;;5074699;28;20265;-76
2023/03/16 04:53:46;;;;;;;4.30;1.42;;;34.90;48.20;;;;;;5072572;28;20619;-76
2023/03/16 04:56:22;;;;;;;3.22;1.20;;;35.00;49.80;;;;;;5074352;28;20216;-77
2023/03/16 04:58:55;;;;;;;4.32;1.00;;;35.00;48.80;;;;;;5061965;28;20195;-76
2023/03/16 05:01:26;;;;;;;2.35;0.90;;;35.10;49.10;;;;;;5066109;28;20703;-73
2023/03/16 05:04:01;;;;;;;2.83;1.10;;;35.20;47.10;;;;;;5060691;28;20207;-76
2023/03/16 05:06:32;;;;;;;2.85;0.80;;;35.20;46.30;;;;;;5074884;28;20219;-76
2023/03/16 05:09:04;;;;;;;2.10;0.90;;;35.20;45.70;;;;;;5065176;28;20687;-76
2023/03/16 05:11:36;;;;;;;5.53;1.20;;;35.30;46.10;;;;;;5070970;28;20200;-76
2023/03/16 05:14:09;;;;;;;3.92;0.90;;;35.40;47.00;;;;;;5063400;28;20203;-75
2023/03/16 05:16:40;;;;;;;1.42;0.95;;;35.50;45.40;;;;;;5071266;28;20199;-76
2023/03/16 05:19:13;;;;;;;1.65;1.10;;;35.50;45.00;;;;;;5081128;28;20203;-76
2023/03/16 05:21:45;;;;;;;2.25;1.00;;;35.50;44.50;;;;;;5062729;28;20260;-76
2023/03/16 05:24:16;;;;;;;4.22;1.13;;;35.50;44.60;;;;;;5059213;28;20223;-76
2023/03/16 05:26:47;;;;;;;5.97;1.00;;;35.60;42.80;;;;;;5062542;28;20289;-77
2023/03/16 05:29:18;;;;;;;1.55;0.70;;;35.70;43.50;;;;;;5086637;28;20219;-77
2023/03/16 05:31:49;;;;;;;4.88;0.80;;;35.70;43.20;;;;;;5108072;28;20238;-76
2023/03/16 05:34:22;;;;;;;1.40;0.77;;;35.80;40.00;;;;;;5105763;28;20197;-75
2023/03/16 05:36:53;;;;;;;3.25;0.70;;;36.00;38.70;;;;;;5114681;28;20198;-75
2023/03/16 05:39:24;;;;;;;2.97;0.60;;;36.00;36.80;;;;;;5105006;28;20217;-76
2023/03/16 05:41:56;;;;;;;4.10;0.50;;;36.10;36.70;;;;;;5115378;28;20664;-76
2023/03/16 05:44:27;;;;;;;4.65;0.90;;;36.20;37.30;;;;;;5112759;28;20205;-76
2023/03/16 05:46:58;;;;;;;3.72;0.65;;;36.20;36.80;;;;;;5117122;28;20570;-76
2023/03/16 05:49:31;;;;;;;1.38;0.60;;;36.30;36.90;;;;;;5103111;28;20554;-77
2023/03/16 05:52:05;;;;;;;1.35;0.60;;;36.30;36.50;;;;;;5107994;28;20692;-77
2023/03/16 05:54:36;;;;;;;2.20;0.63;;;36.40;36.00;;;;;;5110566;28;20553;-76
2023/03/16 05:57:07;;;;;;;2.17;0.80;;;36.40;36.30;;;;;;5109429;28;20205;-78
2023/03/16 05:59:38;;;;;;;3.28;0.60;;;36.50;35.50;;;;;;5107261;28;20244;-77
2023/03/16 06:02:10;;;;;;;1.55;0.80;;;36.60;35.90;;;;;;5098943;28;20225;-75
2023/03/16 06:04:43;;;;;;;3.33;0.45;;;36.70;35.70;;;;;;5104732;28;20202;-76
2023/03/16 06:07:14;;;;;;;0.50;0.50;;;36.80;36.20;;;;;;5107388;28;20712;-76
2023/03/16 06:09:48;;;;;;;3.13;0.57;;;36.90;35.30;;;;;;5105730;28;20199;-77
2023/03/16 06:12:19;;;;;;;1.75;0.50;;;37.00;36.40;;;;;;5097397;28;20646;-77
2023/03/16 06:14:51;;;;;;;0.90;0.60;;;37.00;35.20;;;;;;5111725;28;20661;-77
2023/03/16 06:17:22;;;;;;;4.05;0.80;;;37.00;35.40;;;;;;5109915;28;20195;-77
2023/03/16 06:19:55;;;;;;;2.25;0.75;;;37.10;34.70;;;;;;5094609;28;20195;-77
2023/03/16 06:22:26;;;;;;;4.97;0.95;;;37.20;34.70;;;;;;5095710;28;20743;-77
2023/03/16 06:24:57;;;;;;;2.85;0.80;;;37.30;34.80;;;;;;5094230;28;20203;-77
2023/03/16 06:27:29;;;;;;;2.00;0.65;;;37.30;34.40;;;;;;5098123;28;20569;-76
2023/03/16 06:30:00;;;;;;;2.47;1.05;;;37.40;33.80;;;;;;5102212;28;20229;-75
2023/03/16 06:32:34;;;;;;;1.20;0.57;;;37.40;33.90;;;;;;5102860;28;20217;-77
2023/03/16 06:35:08;;;;;;;1.00;0.52;;;37.70;34.30;;;;;;5104730;28;20201;-78
2023/03/16 06:37:39;;;;;;;3.08;1.40;;;37.90;34.90;;;;;;5101555;28;20209;-78
2023/03/16 06:40:13;;;;;;;1.50;0.70;;;38.00;33.40;;;;;;5097644;28;20191;-78
2023/03/16 06:42:44;;;;;;;2.20;0.70;;;38.20;33.60;;;;;;5106342;28;20194;-77
2023/03/16 06:45:16;;;;;;;2.28;0.65;;;38.50;33.30;;;;;;5097849;28;20559;-78
2023/03/16 06:47:47;;;;;;;1.15;0.50;;;38.70;33.60;;;;;;5100024;28;20628;-78
2023/03/16 06:50:21;;;;;;;4.72;0.70;;;38.90;33.40;;;;;;5101704;28;20205;-79
2023/03/16 06:52:52;;;;;;;1.83;0.75;;;39.20;33.00;;;;;;5105106;28;20222;-78
2023/03/16 06:55:23;;;;;;;0.70;0.50;;;39.20;32.40;;;;;;5109412;28;20552;-78
2023/03/16 06:57:54;;;;;;;2.97;0.82;;;39.10;32.60;;;;;;5112315;28;20687;-78
2023/03/16 07:00:26;;;;;;;3.30;0.85;;;39.00;32.70;;;;;;5102008;28;20688;-77
2023/03/16 07:02:57;;;;;;;2.33;0.70;;;39.10;31.80;;;;;;5108622;28;20194;-78
2023/03/16 07:05:30;;;;;;;2.03;0.80;;;38.80;32.30;;;;;;5104896;28;20190;-78
2023/03/16 07:08:01;;;;;;;1.85;1.15;;;38.50;32.20;;;;;;5094026;28;20195;-76
2023/03/16 07:10:33;;;;;;;1.95;0.90;;;38.50;32.60;;;;;;5101864;28;20256;-78
2023/03/16 07:13:04;;;;;;;5.70;1.35;;;38.40;32.00;;;;;;5107051;28;20222;-77
2023/03/16 07:15:35;;;;;;;2.22;1.20;;;38.30;32.70;;;;;;5094302;28;20646;-78
2023/03/16 07:18:07;;;;;;;2.35;0.80;;;38.00;32.50;;;;;;5109446;28;20202;-78
2023/03/16 07:20:40;;;;;;;1.48;0.88;;;37.60;32.80;;;;;;5104354;28;20199;-77
2023/03/16 07:23:12;;;;;;;3.67;0.90;;;37.20;34.00;;;;;;5103305;28;20195;-78
2023/03/16 07:25:43;;;;;;;1.45;0.70;;;36.90;34.90;;;;;;5103948;28;20194;-77
2023/03/16 07:28:14;;;;;;;4.50;1.15;;;36.70;35.40;;;;;;5100113;28;20219;-76
2023/03/16 07:30:46;;;;;;;3.35;1.10;;;36.40;34.90;;;;;;5105564;28;20704;-77
2023/03/16 07:33:17;;;;;;;3.35;1.20;;;36.20;35.40;;;;;;5099499;28;20701;-77
2023/03/16 07:35:50;;;;;;;2.75;1.40;;;36.10;36.10;;;;;;5109221;28;20217;-78
2023/03/16 07:38:21;;;;;;;5.03;1.27;;;35.90;36.40;;;;;;5105476;28;20201;-79
2023/03/16 07:40:53;;;;;;;2.10;1.00;;;35.80;35.90;;;;;;5103333;28;20657;-77
2023/03/16 07:43:24;;;;;;;2.75;1.30;;;35.60;36.30;;;;;;5100673;28;20616;-79
2023/03/16 07:45:55;;;;;;;4.30;1.58;;;35.50;36.80;;;;;;5099872;28;20199;-79
2023/03/16 07:48:27;;;;;;;2.17;1.15;;;35.40;36.20;;;;;;5104183;28;20191;-78
2023/03/16 07:51:00;;;;;;;5.63;2.25;;;35.30;37.20;;;;;;5095790;28;20205;-79
2023/03/16 07:53:31;;;;;;;8.15;3.25;;;35.20;36.90;;;;;;5091884;28;20223;-77
2023/03/16 07:56:03;;;;;;;7.32;4.00;;;35.00;36.60;;;;;;5092324;28;20195;-78
2023/03/16 07:58:34;;;;;;;6.30;2.40;;;35.00;37.10;;;;;;5103991;28;20194;-78
2023/03/16 08:01:05;;;;;;;3.90;1.92;;;34.80;37.50;;;;;;5111830;28;20210;-78
2023/03/16 08:03:36;;;;;;;4.95;1.70;;;34.70;37.40;;;;;;5099663;28;20198;-77
2023/03/16 08:06:09;;;;;;;5.30;1.65;;;34.60;37.40;;;;;;5092009;28;20575;-77
2023/03/16 08:08:41;;;;;;;2.50;1.45;;;34.40;38.30;;;;;;5091089;28;20196;-77
2023/03/16 08:11:13;;;;;;;4.53;1.65;;;34.30;38.70;;;;;;5101210;28;20231;-77
2023/03/16 08:13:45;;;;;;;8.77;2.17;;;34.20;38.50;;;;;;5110073;28;20230;-78
2023/03/16 08:16:16;;;;;;;8.07;3.50;;;34.20;38.50;;;;;;5111454;28;20200;-78
2023/03/16 08:18:48;;;;;;;5.13;2.58;;;34.10;38.10;;;;;;5096452;28;20203;-77
2023/03/16 08:21:21;;;;;;;3.75;2.17;;;34.10;37.80;;;;;;5114294;28;20200;-77
2023/03/16 08:23:52;;;;;;;5.35;2.28;;;34.00;37.40;;;;;;5118518;28;20205;-77
2023/03/16 08:26:25;;;;;;;4.80;2.10;;;33.90;36.90;;;;;;5092587;28;20199;-77
2023/03/16 08:29:02;;;;;;;6.78;2.38;;;33.90;37.00;;;;;;5093086;28;20222;-77
2023/03/16 08:31:33;;;;;;;4.60;2.40;;;33.90;37.30;;;;;;5110982;28;20726;-77
2023/03/16 08:34:05;;;;;;;9.50;3.05;;;33.90;37.30;;;;;;5101245;28;20215;-77
2023/03/16 08:36:38;;;;;;;6.93;2.20;;;33.70;37.50;;;;;;5099958;28;20211;-77
2023/03/16 08:39:09;;;;;;;6.95;2.25;;;33.60;38.00;;;;;;5103643;28;20277;-78
2023/03/16 08:41:40;;;;;;;4.57;1.80;;;33.50;37.70;;;;;;5095126;28;20207;-77
2023/03/16 08:44:11;;;;;;;4.57;1.60;;;33.40;38.10;;;;;;5105210;28;20202;-77
2023/03/16 08:46:43;;;;;;;4.05;1.90;;;33.20;38.30;;;;;;5090946;28;20196;-76
2023/03/16 08:49:14;;;;;;;3.55;1.77;;;33.20;38.60;;;;;;5091504;28;20541;-77
2023/03/16 08:51:47;;;;;;;3.03;1.25;;;33.10;39.20;;;;;;5090784;28;20191;-77
2023/03/16 08:54:18;;;;;;;2.72;1.40;;;32.90;40.20;;;;;;5091455;28;20234;-77
2023/03/16 08:56:50;;;;;;;3.42;1.35;;;32.80;40.70;;;;;;5091438;28;20202;-77
2023/03/16 08:59:21;;;;;;;4.45;1.00;;;32.60;41.10;;;;;;5093890;28;20200;-78
2023/03/16 09:01:52;;;;;;;5.20;1.10;;;32.50;41.30;;;;;;5103456;28;20200;-78
2023/03/16 09:04:24;;;;;;;3.88;1.30;;;32.40;40.80;;;;;;5094393;28;20206;-77
2023/03/16 09:06:59;;;;;;;6.15;1.65;;;32.50;41.00;;;;;;5100237;28;20191;-77
2023/03/16 09:09:30;;;;;;;5.15;1.60;;;32.40;40.90;;;;;;5100628;28;20194;-78
2023/03/16 09:12:04;;;;;;;3.70;2.03;;;32.40;41.60;;;;;;5106541;28;20217;-78
2023/03/16 09:14:37;;;;;;;5.45;1.70;;;32.30;41.40;;;;;;5097277;28;20314;-78
2023/03/16 09:17:10;;;;;;;3.42;1.63;;;32.20;41.70;;;;;;5100622;28;20187;-79
2023/03/16 09:19:41;;;;;;;5.35;1.70;;;32.10;41.90;;;;;;5102590;28;20191;-78
2023/03/16 09:22:14;;;;;;;4.00;1.50;;;32.00;42.60;;;;;;5111423;28;20244;-78
2023/03/16 09:24:45;;;;;;;3.80;1.45;;;32.00;42.90;;;;;;5122812;28;20189;-78
2023/03/16 09:27:16;;;;;;;3.40;1.15;;;31.90;43.50;;;;;;5121095;28;20569;-78
2023/03/16 09:29:48;;;;;;;5.63;1.10;;;31.80;44.00;;;;;;5101746;28;20222;-78
2023/03/16 09:32:19;;;;;;;3.83;1.08;;;31.70;44.30;;;;;;5109866;28;20194;-78
2023/03/16 09:34:50;;;;;;;3.00;1.10;;;31.60;44.40;;;;;;5104393;28;20199;-78
2023/03/16 09:37:24;;;;;;;3.42;1.00;;;31.60;44.20;;;;;;5101394;28;20190;-77
2023/03/16 09:39:56;;;;;;;3.22;1.20;;;31.50;45.30;;;;;;5094270;28;20255;-77
2023/03/16 09:42:35;;;;;;;2.15;1.10;;;31.40;44.60;;;;;;5099349;28;20205;-78
2023/03/16 09:45:16;;;;;;;4.88;1.20;;;31.40;44.40;;;;;;5106289;28;20199;-78
2023/03/16 09:47:50;;;;;;;3.75;0.95;;;31.40;45.20;;;;;;5102718;28;20194;-78
2023/03/16 09:50:27;;;;;;;4.55;1.00;;;31.30;46.60;;;;;;5114816;28;20206;-77
2023/03/16 09:53:04;;;;;;;3.30;1.33;;;31.20;47.70;;;;;;5103658;28;20684;-79
2023/03/16 09:55:37;;;;;;;1.33;0.90;;;31.10;47.90;;;;;;5112715;28;20203;-79
2023/03/16 09:58:13;;;;;;;4.00;1.10;;;31.00;48.90;;;;;;5113931;28;20198;-78
2023/03/16 10:00:51;;;;;;;2.58;0.95;;;30.90;48.00;;;;;;5105015;27;20199;-78
2023/03/16 10:03:35;;;;;;;3.33;1.05;;;30.90;48.30;;;;;;5108083;28;20251;-78
2023/03/16 10:06:11;;;;;;;2.90;1.10;;;30.80;48.40;;;;;;5109753;28;20191;-79
2023/03/16 10:08:47;;;;;;;5.15;1.15;;;30.70;49.40;;;;;;5112961;28;20202;-79
2023/03/16 10:11:32;;;;;;;1.92;1.08;;;30.60;50.00;;;;;;5096170;28;20213;-79
2023/03/16 10:14:16;;;;;;;1.55;1.00;;;30.60;50.40;;;;;;5095514;28;20759;-80
2023/03/16 10:16:51;;;;;;;3.83;1.33;;;30.50;50.30;;;;;;5107659;28;21597;-80
2023/03/16 10:19:29;;;;;;;2.97;1.20;;;30.40;48.60;;;;;;5094968;28;20948;-79
2023/03/16 10:22:02;;;;;;;6.25;1.67;;;30.50;46.40;;;;;;5098212;28;20309;-80
2023/03/16 10:24:45;;;;;;;7.25;1.23;;;30.60;45.80;;;;;;5106175;28;20214;-79
2023/03/16 10:27:21;;;;;;;6.32;1.05;;;30.60;45.20;;;;;;5102634;28;20210;-79
2023/03/16 10:29:52;;;;;;;4.07;1.15;;;30.70;43.20;;;;;;5099930;27;20243;-78
2023/03/16 10:32:27;;;;;;;6.35;0.90;;;30.80;42.80;;;;;;5103839;28;20220;-78
2023/03/16 10:35:03;;;;;;;7.20;0.80;;;31.00;42.30;;;;;;5101932;28;20254;-78
2023/03/16 10:37:36;;;;;;;0.73;0.57;;;31.10;41.90;;;;;;5106119;28;20210;-78
2023/03/16 10:40:13;;;;;;;4.50;0.90;;;31.30;40.70;;;;;;5105652;28;20199;-77
2023/03/16 10:42:45;;;;;;;0.73;0.52;;;31.30;40.40;;;;;;5107196;28;20231;-77
2023/03/16 10:45:30;;;;;;;2.78;0.90;;;31.30;40.10;;;;;;5107163;28;20205;-77
2023/03/16 10:48:10;;;;;;;1.77;0.90;;;31.30;39.90;;;;;;5102523;28;20677;-78
2023/03/16 10:50:41;;;;;;;5.07;0.75;;;31.40;39.70;;;;;;5106632;28;20205;-78
2023/03/16 10:53:21;;;;;;;5.72;0.70;;;31.30;39.70;;;;;;5105694;28;20229;-77
2023/03/16 10:56:01;;;;;;;2.00;0.93;;;31.30;39.70;;;;;;5108132;28;20213;-77
2023/03/16 10:58:47;;;;;;;3.08;0.75;;;31.30;39.50;;;;;;5123899;28;20208;-77
2023/03/16 11:01:33;;;;;;;2.92;0.70;;;31.30;39.40;;;;;;5126526;28;20238;-76
2023/03/16 11:04:04;;;;;;;2.35;0.93;;;31.30;39.50;;;;;;5112718;28;20201;-79
2023/03/16 11:06:38;;;;;;;4.53;0.70;;;31.30;38.90;;;;;;5123938;28;20198;-77
2023/03/16 11:09:18;;;;;;;1.38;0.60;;;31.30;39.40;;;;;;5121111;28;20191;-77
2023/03/16 11:15:24;;;;;;;3.17;0.50;;;31.20;39.30;;;;;;5125414;28;20229;-79
2023/03/16 11:23:34;;;;;;;1.80;0.55;;;31.10;39.30;;;;;;5127571;28;20196;-78
2023/03/16 11:26:21;;;;;;;2.05;0.40;;;31.00;39.40;;;;;;5133175;28;20285;-78
2023/03/16 11:29:16;;;;;;;3.08;0.60;;;31.00;39.50;;;;;;5128565;28;20222;-78
2023/03/16 11:37:55;;;;;;;2.00;0.45;;;30.90;39.40;;;;;;5120681;28;20236;-77
2023/03/16 11:40:57;;;;;;;1.95;0.70;;;30.90;39.40;;;;;;5126115;28;20220;-78
2023/03/16 11:43:56;;;;;;;2.25;0.50;;;30.90;39.40;;;;;;5116868;28;20199;-79
2023/03/16 11:46:32;;;;;;;1.38;0.40;;;30.80;39.50;;;;;;5126948;28;20217;-78
2023/03/16 11:55:25;;;;;;;2.83;0.65;;;30.80;39.70;;;;;;5125863;28;20254;-78
2023/03/16 11:58:13;;;;;;;1.70;0.52;;;30.60;40.00;;;;;;5113054;28;20209;-78
2023/03/16 12:01:13;;;;;;;2.90;0.63;;;30.60;40.30;;;;;;5126415;28;20198;-78
2023/03/16 12:04:24;;;;;;;0.98;0.40;;;30.50;40.80;;;;;;5117602;28;20186;-76
2023/03/16 12:07:13;;;;;;;1.25;0.40;;;30.40;41.20;;;;;;5124942;28;20204;-78
2023/03/16 12:10:07;;;;;;;2.28;0.70;;;30.20;42.80;;;;;;5124908;28;20247;-78
2023/03/16 12:13:00;;;;;;;2.72;0.60;;;30.10;43.90;;;;;;5108887;28;20287;-77
2023/03/16 12:16:00;;;;;;;4.00;0.95;;;30.00;44.10;;;;;;5127855;28;20222;-78
2023/03/16 12:21:45;;;;;;;2.55;0.50;;;29.90;45.20;;;;;;5124409;28;20186;-77
2023/03/16 12:24:23;;;;;;;3.95;0.60;;;29.90;44.20;;;;;;5123872;28;20214;-77
2023/03/16 12:27:00;;;;;;;1.38;0.65;;;29.80;43.70;;;;;;5123950;28;20198;-76
2023/03/16 12:29:58;;;;;;;4.07;0.70;;;29.80;44.10;;;;;;5118192;28;20233;-75
2023/03/16 12:32:55;;;;;;;8.45;0.80;;;29.80;44.60;;;;;;5120652;28;20712;-77
2023/03/16 12:35:41;;;;;;;4.65;0.90;;;29.80;44.60;;;;;;5113888;28;20738;-77
2023/03/16 12:38:42;;;;;;;3.88;0.82;;;29.70;45.40;;;;;;5117094;28;20190;-78
2023/03/16 12:41:32;;;;;;;1.65;0.60;;;29.70;44.80;;;;;;5117198;28;20186;-77
2023/03/16 12:44:13;;;;;;;1.73;0.85;;;29.70;44.60;;;;;;5114983;28;20194;-77
2023/03/16 12:46:55;;;;;;;2.75;0.88;;;29.60;44.90;;;;;;5115578;28;20251;-78
2023/03/16 12:49:27;;;;;;;5.03;0.70;;;29.50;44.70;;;;;;5108902;28;20208;-77
2023/03/16 12:52:07;;;;;;;4.60;0.80;;;29.50;45.10;;;;;;5107831;28;20205;-78
2023/03/16 12:54:50;;;;;;;4.45;0.90;;;29.40;44.20;;;;;;5105681;28;20221;-77
2023/03/16 12:57:25;;;;;;;2.25;0.95;;;29.40;44.40;;;;;;5110410;28;20661;-78
2023/03/16 13:00:01;;;;;;;1.48;0.68;;;29.30;44.70;;;;;;5109624;28;20202;-77
2023/03/16 13:02:37;;;;;;;2.83;0.75;;;29.30;44.70;;;;;;5108907;28;20849;-77
2023/03/16 13:05:13;;;;;;;1.63;0.80;;;29.30;44.60;;;;;;5106973;28;20247;-77
2023/03/16 13:07:51;;;;;;;2.53;0.80;;;29.20;44.60;;;;;;5112798;28;20206;-77
2023/03/16 13:10:25;;;;;;;1.15;0.65;;;29.10;43.50;;;;;;5105279;28;20575;-77
2023/03/16 13:12:56;;;;;;;3.30;0.77;;;29.10;43.80;;;;;;5107596;28;20233;-77
2023/03/16 13:15:32;;;;;;;6.15;0.98;;;29.10;43.80;;;;;;5107765;28;20313;-77
2023/03/16 13:18:29;;;;;;;3.22;0.95;;;29.10;43.80;;;;;;5105567;28;20285;-77
2023/03/16 13:21:03;;;;;;;2.25;0.70;;;29.10;43.10;;;;;;5108448;28;20232;-77
2023/03/16 13:24:00;;;;;;;1.40;0.70;;;29.10;43.50;;;;;;5113741;28;20190;-79
2023/03/16 13:26:43;;;;;;;1.30;0.82;;;29.10;43.50;;;;;;5114145;28;20337;-78
2023/03/16 13:29:31;;;;;;;4.90;0.80;;;29.00;43.90;;;;;;5108727;28;20231;-77
2023/03/16 13:32:05;;;;;;;2.40;0.60;;;29.00;43.40;;;;;;5107475;28;20198;-77
2023/03/16 13:34:40;;;;;;;1.55;0.75;;;29.00;43.90;;;;;;5110348;28;20210;-77
2023/03/16 13:37:18;;;;;;;1.65;0.80;;;28.90;45.40;;;;;;5108370;28;20198;-77
2023/03/16 13:39:56;;;;;;;1.90;0.73;;;28.80;45.70;;;;;;5106320;28;20247;-77
2023/03/16 13:42:31;;;;;;;1.00;0.65;;;28.70;45.70;;;;;;5110332;28;20202;-77
2023/03/16 13:45:13;;;;;;;2.65;1.00;;;28.70;46.00;;;;;;5104096;28;20209;-78
2023/03/16 13:47:47;;;;;;;5.03;1.10;;;28.60;46.50;;;;;;5106376;28;20240;-77
2023/03/16 13:50:19;;;;;;;0.80;0.60;;;28.50;46.70;;;;;;5106364;28;20202;-78
2023/03/16 13:53:00;;;;;;;1.80;0.90;;;28.50;47.90;;;;;;5107207;28;20281;-78